Time;durP1;ratioP1;P1;durP2;ratioP2;P2;SDS_P1;SDS_P2;PMS_P1;PMS_P2;Temp;Humidity;BMP_temperature;BMP_pressure;BME280_temperature;BME280_humidity;BME280_pressure;Samples;Min_cycle;Max_cycle;Signal;HPM_P1;HPM_P2
2022/12/07 00:01:11;;;;;;;6.55;2.15;;;3.10;99.90;;;;;;5092107;28;20387;-66
2022/12/07 00:03:38;;;;;;;7.75;1.85;;;3.00;99.90;;;;;;5092009;28;20376;-66
2022/12/07 00:06:05;;;;;;;6.65;2.10;;;2.90;99.90;;;;;;5090251;28;20043;-66
2022/12/07 00:08:32;;;;;;;11.20;2.20;;;2.80;99.90;;;;;;5090791;28;20039;-66
2022/12/07 00:11:06;;;;;;;6.95;1.73;;;2.80;99.90;;;;;;5092344;28;20177;-66
2022/12/07 00:13:33;;;;;;;5.05;1.20;;;2.70;99.90;;;;;;5088935;28;20044;-65
2022/12/07 00:16:09;;;;;;;4.90;1.50;;;2.60;99.90;;;;;;5110500;28;20134;-66
2022/12/07 00:18:35;;;;;;;8.80;1.60;;;2.50;99.90;;;;;;5092042;28;20048;-66
2022/12/07 00:21:07;;;;;;;9.57;2.58;;;2.50;99.90;;;;;;5109345;28;20036;-66
2022/12/07 00:23:34;;;;;;;10.88;2.08;;;2.40;99.90;;;;;;5089598;28;20457;-66
2022/12/07 00:26:12;;;;;;;11.20;2.10;;;2.40;99.90;;;;;;5057003;28;20033;-67
2022/12/07 00:28:38;;;;;;;10.15;2.58;;;2.50;99.90;;;;;;5094593;28;20468;-66
2022/12/07 00:31:06;;;;;;;8.07;2.15;;;2.50;99.90;;;;;;5114371;28;20147;-66
2022/12/07 00:33:34;;;;;;;8.05;2.38;;;2.60;99.90;;;;;;5095925;28;20048;-66
2022/12/07 00:36:00;;;;;;;8.98;2.05;;;2.60;99.90;;;;;;5114221;28;20035;-66
2022/12/07 00:38:29;;;;;;;15.20;2.50;;;2.60;99.90;;;;;;5095284;28;20031;-66
2022/12/07 00:41:07;;;;;;;17.30;6.10;;;2.60;99.90;;;;;;5064009;28;20038;-66
2022/12/07 00:43:33;;;;;;;13.60;5.90;;;2.70;99.90;;;;;;5093992;28;20042;-66
2022/12/07 00:45:59;;;;;;;23.50;8.40;;;2.70;99.90;;;;;;5095920;28;20043;-66
2022/12/07 00:48:31;;;;;;;23.30;7.03;;;2.70;99.90;;;;;;5113795;28;20047;-66
2022/12/07 00:50:59;;;;;;;12.13;2.05;;;2.70;99.90;;;;;;5078834;28;20115;-66
2022/12/07 00:53:27;;;;;;;18.08;5.65;;;2.60;99.90;;;;;;5092142;28;20524;-66
2022/12/07 00:55:53;;;;;;;7.68;2.20;;;2.70;99.90;;;;;;5112524;28;20051;-66
2022/12/07 00:58:19;;;;;;;7.50;1.60;;;2.80;99.90;;;;;;5113754;28;20035;-66
2022/12/07 01:00:45;;;;;;;9.98;1.65;;;2.80;99.90;;;;;;5093597;28;20157;-66
2022/12/07 01:03:13;;;;;;;7.93;1.67;;;2.90;99.90;;;;;;5090775;28;20416;-66
2022/12/07 01:05:54;;;;;;;11.45;1.90;;;2.90;99.90;;;;;;5081322;28;20055;-66
2022/12/07 01:08:24;;;;;;;;;;;3.00;99.90;;;;;;5091582;28;20381;-66
2022/12/07 01:11:02;;;;;;;8.02;2.22;;;3.10;99.90;;;;;;5084549;28;19999;-66
2022/12/07 01:13:34;;;;;;;6.35;1.60;;;3.10;99.90;;;;;;5092270;28;20437;-66
2022/12/07 01:16:03;;;;;;;6.57;1.80;;;3.20;99.90;;;;;;5091931;28;20040;-66
2022/12/07 01:18:32;;;;;;;7.32;2.08;;;3.20;99.90;;;;;;5095057;28;20079;-66
2022/12/07 01:21:29;;;;;;;7.55;2.05;;;3.20;99.90;;;;;;5112708;28;20036;-66
2022/12/07 01:24:02;;;;;;;12.25;2.45;;;3.20;99.90;;;;;;5076878;28;20051;-66
2022/12/07 01:26:28;;;;;;;;;;;3.20;99.90;;;;;;5109280;28;20040;-66
2022/12/07 01:29:00;;;;;;;9.30;2.88;;;3.30;99.90;;;;;;5095706;28;19915;-66
2022/12/07 01:31:30;;;;;;;10.25;2.20;;;3.40;99.90;;;;;;5113033;28;20108;-66
2022/12/07 01:34:00;;;;;;;9.05;2.92;;;3.30;99.90;;;;;;5112628;28;20159;-66
2022/12/07 01:36:33;;;;;;;10.55;2.78;;;3.40;99.90;;;;;;5092961;28;20515;-66
2022/12/07 01:39:02;;;;;;;18.55;5.90;;;3.30;99.90;;;;;;5108584;28;20138;-66
2022/12/07 01:41:31;;;;;;;13.13;5.03;;;3.20;99.90;;;;;;5078820;28;20044;-66
2022/12/07 01:44:17;;;;;;;17.15;4.55;;;3.10;99.90;;;;;;5074838;28;20035;-66
2022/12/07 01:46:58;;;;;;;9.10;2.50;;;3.00;99.90;;;;;;5057575;28;20040;-66
2022/12/07 01:49:41;;;;;;;9.40;2.42;;;2.90;99.90;;;;;;5108256;28;20127;-66
2022/12/07 01:52:23;;;;;;;9.85;2.45;;;2.80;99.90;;;;;;5083510;28;20767;-66
2022/12/07 01:54:54;;;;;;;8.45;2.58;;;2.70;99.90;;;;;;5070865;28;20059;-66
2022/12/07 01:57:23;;;;;;;9.30;1.83;;;2.60;99.90;;;;;;5079969;28;20056;-66
2022/12/07 01:59:53;;;;;;;6.78;1.25;;;2.60;99.90;;;;;;5072187;28;20083;-66
2022/12/07 02:02:23;;;;;;;8.50;1.70;;;2.70;99.90;;;;;;5071957;28;20047;-66
2022/12/07 02:04:50;;;;;;;6.55;1.52;;;2.90;99.90;;;;;;5080135;28;20039;-66
2022/12/07 02:07:20;;;;;;;;;;;3.10;99.90;;;;;;5054938;28;20045;-66
2022/12/07 02:09:46;;;;;;;5.60;0.98;;;3.30;99.90;;;;;;5089105;28;19965;-66
2022/12/07 02:12:13;;;;;;;5.57;1.25;;;3.40;99.90;;;;;;5072390;28;20036;-66
2022/12/07 02:14:45;;;;;;;4.97;1.02;;;3.50;99.90;;;;;;5080149;28;20040;-66
2022/12/07 02:18:06;;;;;;;5.07;1.50;;;3.50;99.90;;;;;;5086312;28;20122;-66
2022/12/07 02:20:41;;;;;;;7.60;2.05;;;3.50;99.90;;;;;;5072714;28;20082;-66
2022/12/07 02:23:34;;;;;;;7.38;1.00;;;3.50;99.90;;;;;;5091593;28;20039;-66
2022/12/07 02:26:35;;;;;;;5.55;1.15;;;3.60;99.90;;;;;;5090748;28;20562;-66
2022/12/07 02:29:23;;;;;;;4.45;0.90;;;3.60;99.90;;;;;;5086926;28;20505;-66
2022/12/07 02:32:33;;;;;;;4.72;1.20;;;3.60;99.90;;;;;;5089553;28;20440;-66
2022/12/07 02:35:08;;;;;;;3.95;1.20;;;3.60;99.90;;;;;;4992499;28;20081;-66
2022/12/07 02:37:58;;;;;;;7.28;1.00;;;3.70;99.90;;;;;;5004502;28;20053;-66
2022/12/07 02:40:37;;;;;;;6.15;1.00;;;3.80;99.90;;;;;;5028953;28;20302;-66
2022/12/07 02:43:09;;;;;;;8.15;1.58;;;3.90;99.90;;;;;;5025979;28;20053;-66
2022/12/07 02:45:38;;;;;;;5.78;1.25;;;4.00;99.90;;;;;;5028715;28;20034;-66
2022/12/07 02:48:06;;;;;;;6.93;1.02;;;4.00;99.90;;;;;;5010956;28;20046;-66
2022/12/07 02:50:32;;;;;;;5.28;0.95;;;4.10;99.90;;;;;;5008791;28;20053;-65
2022/12/07 02:52:58;;;;;;;6.68;1.17;;;4.20;99.90;;;;;;5007586;28;20076;-66
2022/12/07 02:55:30;;;;;;;4.70;0.90;;;4.20;99.90;;;;;;5011878;28;20111;-66
2022/12/07 02:58:04;;;;;;;7.30;1.15;;;4.30;99.90;;;;;;5028420;28;20080;-66
2022/12/07 03:00:39;;;;;;;11.38;1.85;;;4.30;99.90;;;;;;5008989;28;20038;-65
2022/12/07 03:03:12;;;;;;;5.93;1.10;;;4.30;99.90;;;;;;5027049;28;20085;-66
2022/12/07 03:06:29;;;;;;;8.68;1.20;;;4.30;99.90;;;;;;5028280;28;20121;-66
2022/12/07 03:09:37;;;;;;;8.27;1.10;;;4.30;99.90;;;;;;5030091;28;20046;-66
2022/12/07 03:12:35;;;;;;;6.47;2.00;;;4.20;99.90;;;;;;5078413;28;20044;-66
2022/12/07 03:15:40;;;;;;;6.45;1.33;;;4.10;99.90;;;;;;5088841;28;20495;-66
2022/12/07 03:18:09;;;;;;;10.45;2.72;;;4.10;99.90;;;;;;5085744;28;20044;-65
2022/12/07 03:20:38;;;;;;;6.05;1.02;;;4.00;99.90;;;;;;5068759;28;20044;-66
2022/12/07 03:23:11;;;;;;;3.30;1.05;;;4.00;99.90;;;;;;5052176;28;20044;-66
2022/12/07 03:25:46;;;;;;;7.90;1.30;;;4.00;99.90;;;;;;5073094;28;20045;-66
2022/12/07 03:28:20;;;;;;;9.20;1.65;;;4.00;99.90;;;;;;5070590;28;20109;-66
2022/12/07 03:30:56;;;;;;;3.28;0.80;;;4.00;99.90;;;;;;5083438;28;20040;-66
2022/12/07 03:33:36;;;;;;;11.68;1.13;;;4.00;99.90;;;;;;5087973;28;20648;-65
2022/12/07 03:36:14;;;;;;;7.25;1.70;;;3.90;99.90;;;;;;5088633;28;20115;-66
2022/12/07 03:38:49;;;;;;;6.75;2.65;;;3.80;99.90;;;;;;5089126;28;20503;-65
2022/12/07 03:41:31;;;;;;;6.13;1.02;;;3.90;99.90;;;;;;5090662;28;20031;-66
2022/12/07 03:43:58;;;;;;;9.55;1.40;;;3.90;99.90;;;;;;5090333;28;20043;-66
2022/12/07 03:46:42;;;;;;;4.82;1.05;;;3.80;99.90;;;;;;5088425;28;20104;-66
2022/12/07 03:49:48;;;;;;;10.57;1.27;;;3.80;99.90;;;;;;5074131;28;20045;-66
2022/12/07 03:52:47;;;;;;;8.48;0.90;;;3.60;99.90;;;;;;5078362;28;20572;-66
2022/12/07 03:55:35;;;;;;;10.93;3.22;;;3.60;99.90;;;;;;5092246;28;20697;-66
2022/12/07 03:58:10;;;;;;;5.15;0.98;;;3.60;99.90;;;;;;5076094;28;20036;-66
2022/12/07 04:00:36;;;;;;;10.80;1.77;;;3.50;99.90;;;;;;5076322;28;20492;-66
2022/12/07 04:03:02;;;;;;;7.72;1.20;;;3.60;99.90;;;;;;5096908;28;20032;-66
2022/12/07 04:05:28;;;;;;;5.90;1.10;;;3.60;99.90;;;;;;5088295;28;20433;-66
2022/12/07 04:07:55;;;;;;;6.20;1.25;;;3.70;99.90;;;;;;5093882;28;20127;-66
2022/12/07 04:10:21;;;;;;;8.65;1.17;;;3.70;99.90;;;;;;5097190;28;20119;-66
2022/12/07 04:12:48;;;;;;;9.23;1.45;;;3.80;99.90;;;;;;5095712;28;20480;-66
2022/12/07 04:15:13;;;;;;;12.00;1.70;;;3.80;99.90;;;;;;5095040;28;20782;-66
2022/12/07 04:17:39;;;;;;;9.57;1.23;;;3.80;99.90;;;;;;5092547;28;20044;-66
2022/12/07 04:20:06;;;;;;;3.95;1.00;;;3.70;99.90;;;;;;5096941;28;20504;-66
2022/12/07 04:22:38;;;;;;;5.43;1.23;;;3.70;99.90;;;;;;5090082;28;20092;-66
2022/12/07 04:25:04;;;;;;;6.43;1.10;;;3.70;99.90;;;;;;5109934;28;20044;-66
2022/12/07 04:27:30;;;;;;;7.60;1.10;;;3.60;99.90;;;;;;5096776;28;20036;-66
2022/12/07 04:29:56;;;;;;;8.75;1.10;;;3.50;99.90;;;;;;5096468;28;20454;-66
2022/12/07 04:32:23;;;;;;;8.48;1.38;;;3.50;99.90;;;;;;5105037;28;20062;-66
2022/12/07 04:34:51;;;;;;;5.15;0.95;;;3.40;99.90;;;;;;5111524;28;20078;-66
2022/12/07 04:37:18;;;;;;;6.57;1.00;;;3.40;99.90;;;;;;5081221;28;20083;-66
2022/12/07 04:39:47;;;;;;;6.20;1.00;;;3.30;99.90;;;;;;5107489;28;20068;-67
2022/12/07 04:42:13;;;;;;;3.78;1.05;;;3.30;99.90;;;;;;5082055;28;20092;-66
2022/12/07 04:44:39;;;;;;;5.80;0.98;;;3.30;99.90;;;;;;5098232;28;20115;-66
2022/12/07 04:47:08;;;;;;;4.43;1.17;;;3.30;99.90;;;;;;5116573;28;20179;-66
2022/12/07 04:49:37;;;;;;;4.97;0.95;;;3.30;99.90;;;;;;5097483;28;20430;-66
2022/12/07 04:52:03;;;;;;;5.63;1.00;;;3.20;99.90;;;;;;5102466;28;20047;-66
2022/12/07 04:54:29;;;;;;;8.13;1.58;;;3.20;99.90;;;;;;5078548;28;20043;-66
2022/12/07 04:56:55;;;;;;;5.18;0.80;;;3.10;99.90;;;;;;5078451;28;20040;-66
2022/12/07 04:59:22;;;;;;;8.38;1.08;;;3.10;99.90;;;;;;5095681;28;20528;-66
2022/12/07 05:01:49;;;;;;;8.13;1.20;;;2.90;99.90;;;;;;5078158;28;20475;-66
2022/12/07 05:04:18;;;;;;;5.40;1.00;;;2.80;99.90;;;;;;5078629;28;20039;-66
2022/12/07 05:06:44;;;;;;;4.07;0.90;;;2.80;99.90;;;;;;5080449;28;20282;-66
2022/12/07 05:09:15;;;;;;;8.63;1.02;;;2.80;99.90;;;;;;5078886;28;20055;-66
2022/12/07 05:11:44;;;;;;;6.57;0.85;;;2.80;99.90;;;;;;5056843;28;20491;-66
2022/12/07 05:14:19;;;;;;;2.67;0.60;;;2.70;99.90;;;;;;5111724;28;20075;-66
2022/12/07 05:16:48;;;;;;;2.83;0.80;;;2.50;99.90;;;;;;5093949;28;20479;-66
2022/12/07 05:19:14;;;;;;;6.35;0.80;;;2.40;99.90;;;;;;5093179;28;20384;-66
2022/12/07 05:21:40;;;;;;;10.90;3.05;;;2.20;99.90;;;;;;5073075;28;20540;-66
2022/12/07 05:24:10;;;;;;;5.82;0.70;;;2.20;99.90;;;;;;5078203;28;20153;-66
2022/12/07 05:26:40;;;;;;;6.60;0.90;;;2.10;99.90;;;;;;5099393;28;20043;-66
2022/12/07 05:29:06;;;;;;;4.88;1.17;;;2.20;99.90;;;;;;5071976;28;20046;-66
2022/12/07 05:31:34;;;;;;;7.00;1.00;;;2.20;99.90;;;;;;5102484;28;20499;-66
2022/12/07 05:34:00;;;;;;;5.90;1.35;;;2.30;99.90;;;;;;5084792;28;20071;-66
2022/12/07 05:36:28;;;;;;;8.20;1.13;;;2.50;99.90;;;;;;5094353;28;20122;-67
2022/12/07 05:38:54;;;;;;;9.45;2.00;;;2.70;99.90;;;;;;5071802;28;20527;-66
2022/12/07 05:44:06;;;;;;;9.13;1.00;;;3.10;99.90;;;;;;5075066;28;20127;-66
2022/12/07 05:46:33;;;;;;;4.43;1.00;;;3.20;99.90;;;;;;5091313;28;20389;-66
2022/12/07 05:48:59;;;;;;;8.25;0.98;;;3.30;99.90;;;;;;5108502;28;20039;-66
2022/12/07 05:51:30;;;;;;;6.45;1.27;;;3.40;99.90;;;;;;5112399;28;20139;-66
2022/12/07 05:53:58;;;;;;;10.38;1.80;;;3.40;99.90;;;;;;5100592;28;20135;-66
2022/12/07 05:56:27;;;;;;;5.93;1.92;;;3.50;99.90;;;;;;5057516;28;20051;-66
2022/12/07 06:01:41;;;;;;;7.60;1.15;;;3.70;99.90;;;;;;5104713;28;20042;-66
2022/12/07 06:04:07;;;;;;;5.00;1.15;;;3.70;99.90;;;;;;5108513;28;20436;-66
2022/12/07 06:06:33;;;;;;;6.22;0.98;;;3.80;99.90;;;;;;5094348;28;20047;-66
2022/12/07 06:08:59;;;;;;;8.13;2.38;;;3.80;99.90;;;;;;5112141;28;20437;-66
2022/12/07 06:14:11;;;;;;;8.60;1.63;;;3.60;99.90;;;;;;5097020;28;20503;-66
2022/12/07 06:16:37;;;;;;;5.03;1.00;;;3.50;99.90;;;;;;5112347;28;20112;-66
2022/12/07 06:19:05;;;;;;;6.55;1.13;;;3.50;99.90;;;;;;5089266;28;20079;-66
2022/12/07 06:21:31;;;;;;;8.23;0.98;;;3.40;99.90;;;;;;5086036;28;20042;-66
2022/12/07 06:23:57;;;;;;;3.60;1.02;;;3.30;99.90;;;;;;5108582;28;20051;-66
2022/12/07 06:26:25;;;;;;;4.82;0.70;;;3.30;99.90;;;;;;5093339;28;20043;-66
2022/12/07 06:28:53;;;;;;;6.10;0.82;;;3.20;99.90;;;;;;5093831;28;20831;-66
2022/12/07 06:31:18;;;;;;;8.23;1.30;;;3.20;99.90;;;;;;5111033;28;20397;-66
2022/12/07 06:33:44;;;;;;;5.93;1.25;;;3.20;99.90;;;;;;5111888;28;20096;-66
2022/12/07 06:36:11;;;;;;;5.22;1.02;;;3.10;99.90;;;;;;5080556;28;20101;-66
2022/12/07 06:38:38;;;;;;;9.55;1.38;;;3.00;99.90;;;;;;5083463;28;20149;-66
2022/12/07 06:41:05;;;;;;;6.63;1.13;;;3.00;99.90;;;;;;5107025;28;20044;-66
2022/12/07 06:43:31;;;;;;;4.18;1.30;;;3.00;99.90;;;;;;5090044;28;20036;-66
2022/12/07 06:45:57;;;;;;;5.85;1.10;;;2.90;99.90;;;;;;5080284;28;20043;-66
2022/12/07 06:48:22;;;;;;;4.50;0.90;;;2.80;99.90;;;;;;5093381;28;20055;-66
2022/12/07 06:50:49;;;;;;;6.60;1.35;;;2.70;99.90;;;;;;5111492;28;20035;-66
2022/12/07 06:53:15;;;;;;;8.63;1.27;;;2.50;99.90;;;;;;5073917;28;20057;-66
2022/12/07 06:55:43;;;;;;;6.00;1.30;;;2.40;99.90;;;;;;5069445;28;20056;-66
2022/12/07 06:58:09;;;;;;;5.72;1.10;;;2.30;99.90;;;;;;5088466;28;20044;-66
2022/12/07 07:00:35;;;;;;;6.38;1.35;;;2.20;99.90;;;;;;5091217;28;20061;-66
2022/12/07 07:03:01;;;;;;;7.93;2.47;;;2.10;99.90;;;;;;5086503;28;20032;-66
2022/12/07 07:05:27;;;;;;;6.22;0.73;;;2.10;99.90;;;;;;5078748;28;20373;-66
2022/12/07 07:07:55;;;;;;;4.80;0.90;;;2.00;99.90;;;;;;5069579;28;20037;-66
2022/12/07 07:10:21;;;;;;;5.30;0.80;;;2.00;99.90;;;;;;5070440;28;20036;-66
2022/12/07 07:12:47;;;;;;;6.22;0.85;;;1.90;99.90;;;;;;5070623;28;20089;-66
2022/12/07 07:15:16;;;;;;;4.18;1.10;;;1.90;99.90;;;;;;5088171;28;20127;-66
2022/12/07 07:17:41;;;;;;;3.60;0.85;;;1.90;99.90;;;;;;5089779;28;20038;-66
2022/12/07 07:20:08;;;;;;;6.63;0.88;;;1.90;99.90;;;;;;5093221;28;20487;-66
2022/12/07 07:22:34;;;;;;;7.85;1.15;;;1.80;99.90;;;;;;5072107;28;20051;-66
2022/12/07 07:25:03;;;;;;;4.72;1.17;;;1.80;99.90;;;;;;5086155;28;20037;-66
2022/12/07 07:27:29;;;;;;;3.85;1.02;;;1.80;99.90;;;;;;5081657;28;20123;-66
2022/12/07 07:29:55;;;;;;;3.28;0.77;;;1.80;99.90;;;;;;5078652;28;20044;-66
2022/12/07 07:32:21;;;;;;;5.78;0.95;;;1.80;99.90;;;;;;5068997;28;20535;-66
2022/12/07 07:34:48;;;;;;;5.38;1.27;;;1.80;99.90;;;;;;5068627;28;20040;-66
2022/12/07 07:37:13;;;;;;;5.43;1.00;;;1.80;99.90;;;;;;5070437;28;20076;-66
2022/12/07 07:39:40;;;;;;;9.18;1.48;;;1.80;99.90;;;;;;5068449;28;20072;-66
2022/12/07 07:42:07;;;;;;;18.60;6.47;;;1.80;99.90;;;;;;5054733;28;20358;-66
2022/12/07 07:44:35;;;;;;;16.13;8.07;;;1.80;99.90;;;;;;5078334;28;20042;-66
2022/12/07 07:47:01;;;;;;;11.75;2.38;;;1.80;99.90;;;;;;5089364;28;20400;-66
2022/12/07 07:49:27;;;;;;;11.40;2.08;;;1.70;99.90;;;;;;5076907;28;20041;-66
2022/12/07 07:51:54;;;;;;;9.48;2.42;;;1.70;99.90;;;;;;5070903;28;20036;-66
2022/12/07 07:54:20;;;;;;;9.30;2.10;;;1.70;99.90;;;;;;5053183;28;20415;-66
2022/12/07 07:56:46;;;;;;;5.60;1.98;;;1.70;99.90;;;;;;5098579;28;20036;-66
2022/12/07 07:59:12;;;;;;;5.75;2.00;;;1.60;99.90;;;;;;5076269;28;20047;-66
2022/12/07 08:01:40;;;;;;;17.15;11.10;;;1.60;99.90;;;;;;5085366;28;20040;-66
2022/12/07 08:04:07;;;;;;;7.60;1.60;;;1.60;99.90;;;;;;5069386;28;20515;-66
2022/12/07 08:06:33;;;;;;;10.60;2.15;;;1.70;99.90;;;;;;5070543;28;20072;-66
2022/12/07 08:08:59;;;;;;;6.85;1.30;;;1.70;99.90;;;;;;5088112;28;20506;-66
2022/12/07 08:11:28;;;;;;;9.43;2.85;;;1.70;99.90;;;;;;5072626;28;20439;-65
2022/12/07 08:13:54;;;;;;;11.85;1.33;;;1.70;99.90;;;;;;5071240;28;20072;-66
2022/12/07 08:16:20;;;;;;;7.65;1.65;;;1.70;99.90;;;;;;5079097;28;20051;-68
2022/12/07 08:18:46;;;;;;;10.00;5.22;;;1.80;99.90;;;;;;5081549;28;20055;-67
2022/12/07 08:21:15;;;;;;;8.73;2.90;;;2.00;99.90;;;;;;5085389;28;20032;-67
2022/12/07 08:23:42;;;;;;;13.00;4.22;;;2.30;99.90;;;;;;5077233;28;20047;-67
2022/12/07 08:26:11;;;;;;;11.90;8.40;;;2.50;99.90;;;;;;5069878;28;20119;-67
2022/12/07 08:28:37;;;;;;;13.73;10.43;;;2.80;99.90;;;;;;5059714;28;20503;-68
2022/12/07 08:31:05;;;;;;;17.88;11.07;;;2.90;99.90;;;;;;5085056;28;20489;-67
2022/12/07 08:33:33;;;;;;;21.95;13.07;;;2.90;99.90;;;;;;5052951;28;20040;-67
2022/12/07 08:36:05;;;;;;;12.35;5.82;;;2.80;99.90;;;;;;5088047;28;20551;-67
2022/12/07 08:38:31;;;;;;;6.25;2.17;;;2.90;99.90;;;;;;5089529;28;20073;-67
2022/12/07 08:40:58;;;;;;;7.18;3.28;;;3.30;99.90;;;;;;5089741;28;20028;-67
2022/12/07 08:43:24;;;;;;;10.68;4.07;;;3.70;99.90;;;;;;5059339;28;20044;-67
2022/12/07 08:46:10;;;;;;;9.50;3.38;;;4.20;99.90;;;;;;5084427;28;20043;-67
2022/12/07 08:48:40;;;;;;;3.33;0.88;;;4.60;99.90;;;;;;5093164;28;20035;-67
2022/12/07 08:51:08;;;;;;;8.32;4.00;;;5.00;99.90;;;;;;5091706;28;20044;-67
2022/12/07 08:53:35;;;;;;;7.82;1.42;;;5.60;99.90;;;;;;5091910;28;20117;-67
2022/12/07 08:56:02;;;;;;;8.30;1.10;;;6.10;99.90;;;;;;5074891;28;20068;-67
2022/12/07 08:58:30;;;;;;;3.78;0.93;;;6.60;99.90;;;;;;5092661;28;20097;-67
2022/12/07 09:00:57;;;;;;;8.23;1.30;;;7.00;99.90;;;;;;5088569;28;20036;-67
2022/12/07 09:03:23;;;;;;;9.63;2.22;;;7.10;99.90;;;;;;5089362;28;20345;-68
2022/12/07 09:05:49;;;;;;;5.75;1.25;;;6.90;99.90;;;;;;5088347;28;20036;-68
2022/12/07 09:08:15;;;;;;;7.78;2.30;;;7.00;99.90;;;;;;5092355;28;20036;-67
2022/12/07 09:10:41;;;;;;;7.93;1.30;;;7.50;99.90;;;;;;5079581;28;20040;-67
2022/12/07 09:13:07;;;;;;;7.10;1.58;;;8.00;99.90;;;;;;5084855;28;20052;-67
2022/12/07 09:15:33;;;;;;;7.13;2.22;;;8.00;99.90;;;;;;5081160;28;20048;-67
2022/12/07 09:17:59;;;;;;;8.70;1.42;;;7.60;99.90;;;;;;5082828;28;20169;-67
2022/12/07 09:20:24;;;;;;;7.45;1.45;;;7.20;99.90;;;;;;5091653;28;20080;-67
2022/12/07 09:22:50;;;;;;;8.52;1.40;;;6.70;99.90;;;;;;5087391;28;20040;-67
2022/12/07 09:25:16;;;;;;;5.85;1.20;;;6.30;99.90;;;;;;5084838;28;20072;-66
2022/12/07 09:27:42;;;;;;;5.00;1.27;;;5.90;99.90;;;;;;5075626;28;20052;-67
2022/12/07 09:30:08;;;;;;;6.90;1.17;;;5.70;99.90;;;;;;5071229;28;20040;-66
2022/12/07 09:32:34;;;;;;;8.45;2.00;;;5.50;99.90;;;;;;5070913;28;20048;-66
2022/12/07 09:34:59;;;;;;;7.13;1.20;;;5.30;99.90;;;;;;5079084;28;20048;-68
2022/12/07 09:37:25;;;;;;;9.30;1.10;;;5.20;99.90;;;;;;5079575;28;20043;-67
2022/12/07 09:39:51;;;;;;;4.65;1.38;;;5.10;99.90;;;;;;5085922;28;20051;-67
2022/12/07 09:42:39;;;;;;;5.03;1.50;;;5.20;99.90;;;;;;5090812;28;20120;-67
2022/12/07 09:45:12;;;;;;;8.57;3.35;;;5.70;99.90;;;;;;5090752;28;20032;-67
2022/12/07 09:47:37;;;;;;;8.85;2.17;;;6.80;99.90;;;;;;5060016;28;20111;-66
2022/12/07 09:50:17;;;;;;;4.65;1.70;;;7.70;99.90;;;;;;5087144;28;20497;-67
2022/12/07 09:52:45;;;;;;;4.10;1.33;;;8.50;99.90;;;;;;5086059;28;20064;-66
2022/12/07 09:55:19;;;;;;;7.18;1.85;;;9.20;99.90;;;;;;5107867;28;20499;-67
2022/12/07 09:57:45;;;;;;;4.53;1.88;;;9.70;99.90;;;;;;5107564;28;20732;-67
2022/12/07 10:00:17;;;;;;;6.32;1.58;;;10.10;99.90;;;;;;5092110;28;20392;-67
2022/12/07 10:03:00;;;;;;;6.00;1.63;;;10.60;99.90;;;;;;5091771;28;20210;-67
2022/12/07 10:05:31;;;;;;;6.50;2.42;;;11.10;99.90;;;;;;5090958;28;20044;-66
2022/12/07 10:07:57;;;;;;;4.57;1.25;;;11.10;99.90;;;;;;5084594;28;20036;-66
2022/12/07 10:10:31;;;;;;;7.60;1.10;;;10.50;99.90;;;;;;5099203;28;20114;-66
2022/12/07 10:13:02;;;;;;;8.20;1.33;;;9.70;99.90;;;;;;5091979;28;20036;-66
2022/12/07 10:15:52;;;;;;;6.43;1.15;;;8.80;99.90;;;;;;5091472;28;20050;-66
2022/12/07 10:18:21;;;;;;;7.63;1.33;;;8.00;99.90;;;;;;5081982;28;20055;-66
2022/12/07 10:20:48;;;;;;;5.90;1.42;;;7.40;99.90;;;;;;5071298;28;20046;-66
2022/12/07 10:23:15;;;;;;;8.30;1.25;;;6.90;99.90;;;;;;5071527;28;20039;-66
2022/12/07 10:25:42;;;;;;;4.78;1.17;;;6.60;99.90;;;;;;5078333;28;20039;-66
2022/12/07 10:28:08;;;;;;;8.00;1.20;;;6.30;99.90;;;;;;5101607;28;20161;-66
2022/12/07 10:30:47;;;;;;;7.93;1.40;;;6.10;99.90;;;;;;5091422;28;20063;-66
2022/12/07 10:33:36;;;;;;;12.10;1.65;;;5.90;99.90;;;;;;5090944;28;20043;-66
2022/12/07 10:36:20;;;;;;;6.20;1.73;;;5.70;99.90;;;;;;5080095;28;20492;-67
2022/12/07 10:38:59;;;;;;;12.85;1.73;;;5.60;99.90;;;;;;5106797;28;20055;-66
2022/12/07 10:41:25;;;;;;;5.43;2.10;;;5.60;99.90;;;;;;5076735;28;20614;-67
2022/12/07 10:43:54;;;;;;;5.88;1.67;;;5.80;99.90;;;;;;5069340;28;20036;-67
2022/12/07 10:46:46;;;;;;;7.85;1.33;;;5.90;99.90;;;;;;5106768;28;20051;-66
2022/12/07 10:49:39;;;;;;;7.53;1.50;;;6.30;99.90;;;;;;5089893;28;20043;-67
2022/12/07 10:52:49;;;;;;;8.00;2.55;;;6.80;99.90;;;;;;5074560;28;20052;-67
2022/12/07 10:55:41;;;;;;;5.38;1.52;;;6.90;99.90;;;;;;5093015;28;20051;-67
2022/12/07 10:58:49;;;;;;;7.85;2.88;;;6.90;99.90;;;;;;5085432;28;20059;-67
2022/12/07 11:01:44;;;;;;;4.40;1.90;;;6.80;99.90;;;;;;5081137;28;20098;-67
2022/12/07 11:04:25;;;;;;;14.50;2.30;;;6.80;99.90;;;;;;5089980;28;20495;-67
2022/12/07 11:07:22;;;;;;;6.93;1.88;;;6.90;99.90;;;;;;5091569;28;20523;-67
2022/12/07 11:10:01;;;;;;;7.35;1.67;;;7.10;99.90;;;;;;5102793;28;20504;-67
2022/12/07 11:12:56;;;;;;;8.18;1.90;;;7.30;99.90;;;;;;5068673;28;20047;-67
2022/12/07 11:16:03;;;;;;;10.13;1.92;;;7.40;99.90;;;;;;5068214;28;20047;-67
2022/12/07 11:18:44;;;;;;;8.13;1.88;;;7.20;99.90;;;;;;5067944;28;20040;-67
2022/12/07 11:21:19;;;;;;;7.60;1.90;;;7.10;99.90;;;;;;5071691;28;20124;-67
2022/12/07 11:23:55;;;;;;;5.93;1.10;;;7.00;99.90;;;;;;5082315;28;20039;-68
2022/12/07 11:26:41;;;;;;;10.20;2.20;;;6.90;99.90;;;;;;5110656;28;20032;-67
2022/12/07 11:29:09;;;;;;;6.05;1.30;;;6.80;99.90;;;;;;5092676;28;20051;-67
2022/12/07 11:31:47;;;;;;;6.80;1.40;;;6.70;99.90;;;;;;5110315;28;20480;-67
2022/12/07 11:34:28;;;;;;;7.78;1.02;;;6.60;99.90;;;;;;5091139;28;20126;-67
2022/12/07 11:36:55;;;;;;;2.50;0.75;;;6.50;99.90;;;;;;5092109;28;20044;-66
2022/12/07 11:39:30;;;;;;;3.65;0.75;;;6.40;99.90;;;;;;5074316;28;20040;-67
2022/12/07 11:42:09;;;;;;;6.65;1.05;;;6.30;99.90;;;;;;5065668;28;20044;-66
2022/12/07 11:44:56;;;;;;;9.33;1.23;;;6.10;99.90;;;;;;5069793;28;20048;-67
2022/12/07 11:47:46;;;;;;;11.57;1.30;;;6.10;99.90;;;;;;5089126;28;20140;-67
2022/12/07 11:50:38;;;;;;;9.23;1.45;;;6.30;99.90;;;;;;5090219;28;20040;-67
2022/12/07 11:53:16;;;;;;;3.70;1.00;;;6.50;99.90;;;;;;5089982;28;20070;-67
2022/12/07 11:55:57;;;;;;;7.25;1.38;;;6.80;99.90;;;;;;5072620;28;20040;-66
2022/12/07 11:58:41;;;;;;;5.70;1.80;;;7.00;99.90;;;;;;5070205;28;20473;-67
2022/12/07 12:01:22;;;;;;;13.32;6.00;;;7.10;99.90;;;;;;5107377;28;20055;-67
2022/12/07 12:04:11;;;;;;;8.70;3.63;;;7.20;99.90;;;;;;5090072;28;20071;-66
2022/12/07 12:06:39;;;;;;;6.35;2.60;;;7.10;99.90;;;;;;5094766;28;20044;-66
2022/12/07 12:09:13;;;;;;;5.63;1.80;;;7.10;99.90;;;;;;5079569;28;20549;-66
2022/12/07 12:12:05;;;;;;;11.68;1.98;;;7.10;99.90;;;;;;5067914;28;20048;-66
2022/12/07 12:15:18;;;;;;;7.43;2.55;;;7.10;99.90;;;;;;5089582;28;20111;-66
2022/12/07 12:17:49;;;;;;;8.70;1.85;;;7.20;99.90;;;;;;5009146;28;20064;-66
2022/12/07 12:20:33;;;;;;;12.07;2.67;;;7.20;99.90;;;;;;5027706;28;20530;-66
2022/12/07 12:23:12;;;;;;;8.70;2.67;;;7.20;99.90;;;;;;5007812;28;20041;-67
2022/12/07 12:25:51;;;;;;;7.35;2.63;;;7.20;99.90;;;;;;5031487;28;20472;-66
2022/12/07 12:28:25;;;;;;;9.32;1.83;;;7.20;99.90;;;;;;5007266;28;20093;-66
2022/12/07 12:31:13;;;;;;;6.28;1.50;;;7.20;99.90;;;;;;5013503;28;20191;-66
2022/12/07 12:33:52;;;;;;;4.07;1.40;;;7.20;99.90;;;;;;5031224;28;20053;-66
2022/12/07 12:36:20;;;;;;;6.10;1.02;;;7.30;99.90;;;;;;5030914;28;20037;-66
2022/12/07 12:39:06;;;;;;;8.07;1.50;;;7.20;99.90;;;;;;5005791;28;20847;-66
2022/12/07 12:41:39;;;;;;;7.43;1.30;;;7.20;99.90;;;;;;5014862;28;20128;-66
2022/12/07 12:44:17;;;;;;;7.10;1.63;;;7.10;99.90;;;;;;5030471;28;20120;-66
2022/12/07 12:47:00;;;;;;;6.35;2.25;;;6.90;99.90;;;;;;5014351;28;20120;-66
2022/12/07 12:49:26;;;;;;;8.48;1.25;;;6.90;99.90;;;;;;5030913;28;20521;-66
2022/12/07 12:51:53;;;;;;;5.20;1.17;;;6.70;99.90;;;;;;5031042;28;20050;-67
2022/12/07 12:54:25;;;;;;;5.72;1.35;;;6.50;99.90;;;;;;5098222;28;20052;-66
2022/12/07 12:57:41;;;;;;;4.95;0.90;;;6.50;99.90;;;;;;5093071;28;20040;-66
2022/12/07 13:00:21;;;;;;;3.55;1.45;;;6.30;99.90;;;;;;5008258;28;20177;-66
2022/12/07 13:02:53;;;;;;;4.22;1.02;;;6.20;99.90;;;;;;5004219;28;20064;-65
2022/12/07 13:05:20;;;;;;;6.53;0.93;;;6.10;99.90;;;;;;4995140;28;20033;-66
2022/12/07 13:07:46;;;;;;;4.57;0.88;;;6.10;99.90;;;;;;4994239;28;20512;-66
2022/12/07 13:10:29;;;;;;;5.93;0.88;;;6.10;99.90;;;;;;4993422;28;20057;-66
2022/12/07 13:13:01;;;;;;;5.43;1.38;;;6.20;99.90;;;;;;5009443;28;20093;-66
2022/12/07 13:15:47;;;;;;;3.08;1.10;;;6.30;99.90;;;;;;4993540;28;20053;-65
2022/12/07 13:18:31;;;;;;;5.78;1.05;;;6.40;99.90;;;;;;5009884;28;20041;-66
2022/12/07 13:21:07;;;;;;;5.07;0.85;;;6.40;99.90;;;;;;5003079;28;20052;-66
2022/12/07 13:23:52;;;;;;;7.82;1.13;;;6.40;99.90;;;;;;5010359;28;20049;-66
2022/12/07 13:26:29;;;;;;;7.55;1.38;;;6.40;99.90;;;;;;5011175;28;20056;-66
2022/12/07 13:29:11;;;;;;;4.95;0.88;;;6.30;99.90;;;;;;4993954;28;20053;-66
2022/12/07 13:31:44;;;;;;;4.93;1.00;;;6.20;99.90;;;;;;4993355;28;20111;-66
2022/12/07 13:34:32;;;;;;;6.78;0.98;;;6.20;99.90;;;;;;4993624;28;20528;-66